sensor_id;sensor_type;location;lat;lon;timestamp;pressure;altitude;pressure_sealevel;temperature;humidity
65134;BME280;51713;40.700;-111.794;2022-07-10T00:02:22;84654.43;;;28.69;18.93
65134;BME280;51713;40.700;-111.794;2022-07-10T00:04:49;84665.87;;;28.32;18.94
65134;BME280;51713;40.700;-111.794;2022-07-10T00:07:17;84665.30;;;28.46;18.84
65134;BME280;51713;40.700;-111.794;2022-07-10T00:09:45;84658.88;;;28.74;18.82
65134;BME280;51713;40.700;-111.794;2022-07-10T00:12:14;84651.02;;;28.63;18.84
65134;BME280;51713;40.700;-111.794;2022-07-10T00:14:42;84653.26;;;28.66;18.81
65134;BME280;51713;40.700;-111.794;2022-07-10T00:17:11;84654.69;;;28.42;18.75
65134;BME280;51713;40.700;-111.794;2022-07-10T00:19:39;84658.44;;;28.32;18.76
65134;BME280;51713;40.700;-111.794;2022-07-10T00:22:07;84661.30;;;28.35;18.75
65134;BME280;51713;40.700;-111.794;2022-07-10T00:24:34;84661.48;;;28.85;18.58
65134;BME280;51713;40.700;-111.794;2022-07-10T00:27:04;84662.57;;;28.55;18.68
65134;BME280;51713;40.700;-111.794;2022-07-10T00:29:32;84664.73;;;28.44;18.59
65134;BME280;51713;40.700;-111.794;2022-07-10T00:31:59;84660.09;;;28.77;18.50
65134;BME280;51713;40.700;-111.794;2022-07-10T00:34:27;84656.41;;;28.64;18.56
65134;BME280;51713;40.700;-111.794;2022-07-10T00:36:55;84647.97;;;28.97;18.33
65134;BME280;51713;40.700;-111.794;2022-07-10T00:39:24;84652.32;;;28.58;18.53
65134;BME280;51713;40.700;-111.794;2022-07-10T00:41:51;84649.18;;;28.65;18.49
65134;BME280;51713;40.700;-111.794;2022-07-10T00:44:20;84647.25;;;28.56;18.49
65134;BME280;51713;40.700;-111.794;2022-07-10T00:46:48;84648.32;;;28.70;18.41
65134;BME280;51713;40.700;-111.794;2022-07-10T00:49:17;84647.62;;;28.60;18.46
65134;BME280;51713;40.700;-111.794;2022-07-10T00:51:44;84646.22;;;28.23;18.84
65134;BME280;51713;40.700;-111.794;2022-07-10T00:54:13;84641.66;;;28.55;18.79
65134;BME280;51713;40.700;-111.794;2022-07-10T00:56:42;84645.02;;;28.33;18.98
65134;BME280;51713;40.700;-111.794;2022-07-10T00:59:11;84642.79;;;27.96;19.28
65134;BME280;51713;40.700;-111.794;2022-07-10T01:01:39;84638.28;;;28.20;19.22
65134;BME280;51713;40.700;-111.794;2022-07-10T01:04:08;84638.43;;;27.82;19.53
65134;BME280;51713;40.700;-111.794;2022-07-10T01:06:36;84635.97;;;28.21;19.33
65134;BME280;51713;40.700;-111.794;2022-07-10T01:09:04;84637.26;;;27.97;19.54
65134;BME280;51713;40.700;-111.794;2022-07-10T01:11:34;84639.21;;;27.89;19.56
65134;BME280;51713;40.700;-111.794;2022-07-10T01:14:03;84635.18;;;27.87;19.50
65134;BME280;51713;40.700;-111.794;2022-07-10T01:16:31;84630.21;;;28.17;19.56
65134;BME280;51713;40.700;-111.794;2022-07-10T01:19:00;84630.42;;;28.15;19.56
65134;BME280;51713;40.700;-111.794;2022-07-10T01:21:30;84630.75;;;28.35;19.48
65134;BME280;51713;40.700;-111.794;2022-07-10T01:23:58;84630.33;;;28.34;19.51
65134;BME280;51713;40.700;-111.794;2022-07-10T01:26:26;84628.09;;;28.08;19.70
65134;BME280;51713;40.700;-111.794;2022-07-10T01:28:55;84625.63;;;27.93;19.68
65134;BME280;51713;40.700;-111.794;2022-07-10T01:31:25;84624.62;;;27.94;19.60
65134;BME280;51713;40.700;-111.794;2022-07-10T01:33:55;84624.07;;;28.15;19.79
65134;BME280;51713;40.700;-111.794;2022-07-10T01:36:24;84618.45;;;27.61;19.98
65134;BME280;51713;40.700;-111.794;2022-07-10T01:38:53;84621.24;;;28.32;19.52
65134;BME280;51713;40.700;-111.794;2022-07-10T01:41:21;84619.44;;;28.79;19.42
65134;BME280;51713;40.700;-111.794;2022-07-10T01:43:50;84617.70;;;28.27;19.60
65134;BME280;51713;40.700;-111.794;2022-07-10T01:46:19;84617.15;;;28.39;19.55
65134;BME280;51713;40.700;-111.794;2022-07-10T01:48:47;84618.55;;;28.54;19.48
65134;BME280;51713;40.700;-111.794;2022-07-10T01:51:15;84616.42;;;28.47;19.70
65134;BME280;51713;40.700;-111.794;2022-07-10T01:53:43;84616.87;;;28.22;19.73
65134;BME280;51713;40.700;-111.794;2022-07-10T01:56:13;84615.52;;;28.86;19.50
65134;BME280;51713;40.700;-111.794;2022-07-10T01:58:42;84614.25;;;28.00;19.90
65134;BME280;51713;40.700;-111.794;2022-07-10T02:01:11;84614.68;;;28.24;19.78
65134;BME280;51713;40.700;-111.794;2022-07-10T02:03:39;84611.05;;;28.45;19.64
65134;BME280;51713;40.700;-111.794;2022-07-10T02:06:08;84610.48;;;28.05;19.79
65134;BME280;51713;40.700;-111.794;2022-07-10T02:08:37;84613.63;;;28.48;19.64
65134;BME280;51713;40.700;-111.794;2022-07-10T02:11:05;84613.80;;;28.21;19.71
65134;BME280;51713;40.700;-111.794;2022-07-10T02:13:34;84613.52;;;28.55;19.64
65134;BME280;51713;40.700;-111.794;2022-07-10T02:16:03;84616.60;;;28.59;19.62
65134;BME280;51713;40.700;-111.794;2022-07-10T02:18:31;84614.42;;;28.66;19.79
65134;BME280;51713;40.700;-111.794;2022-07-10T02:20:59;84616.01;;;28.48;19.74
65134;BME280;51713;40.700;-111.794;2022-07-10T02:23:28;84620.97;;;28.98;19.60
65134;BME280;51713;40.700;-111.794;2022-07-10T02:25:55;84627.56;;;28.87;19.69
65134;BME280;51713;40.700;-111.794;2022-07-10T02:28:23;84630.25;;;28.72;19.61
65134;BME280;51713;40.700;-111.794;2022-07-10T02:30:52;84624.09;;;28.86;19.55
65134;BME280;51713;40.700;-111.794;2022-07-10T02:33:20;84623.32;;;28.45;19.83
65134;BME280;51713;40.700;-111.794;2022-07-10T02:35:49;84625.33;;;28.34;19.78
65134;BME280;51713;40.700;-111.794;2022-07-10T02:38:17;84628.14;;;28.25;19.99
65134;BME280;51713;40.700;-111.794;2022-07-10T02:40:46;84632.42;;;28.21;19.94
65134;BME280;51713;40.700;-111.794;2022-07-10T02:43:14;84632.07;;;28.75;19.69
65134;BME280;51713;40.700;-111.794;2022-07-10T02:45:43;84634.67;;;28.64;19.82
65134;BME280;51713;40.700;-111.794;2022-07-10T02:48:11;84635.21;;;28.52;19.88
65134;BME280;51713;40.700;-111.794;2022-07-10T02:50:38;84635.56;;;28.47;19.92
65134;BME280;51713;40.700;-111.794;2022-07-10T02:53:06;84636.81;;;28.45;19.89
65134;BME280;51713;40.700;-111.794;2022-07-10T02:55:34;84641.11;;;28.26;19.94
65134;BME280;51713;40.700;-111.794;2022-07-10T02:58:03;84644.34;;;29.17;19.54
65134;BME280;51713;40.700;-111.794;2022-07-10T03:00:31;84643.44;;;28.65;19.86
65134;BME280;51713;40.700;-111.794;2022-07-10T03:02:59;84643.73;;;28.75;19.95
65134;BME280;51713;40.700;-111.794;2022-07-10T03:05:28;84647.90;;;29.07;19.90
65134;BME280;51713;40.700;-111.794;2022-07-10T03:07:57;84645.16;;;28.50;20.12
65134;BME280;51713;40.700;-111.794;2022-07-10T03:10:25;84646.22;;;28.69;20.06
65134;BME280;51713;40.700;-111.794;2022-07-10T03:12:53;84646.22;;;28.74;20.05
65134;BME280;51713;40.700;-111.794;2022-07-10T03:15:21;84652.76;;;28.63;20.21
65134;BME280;51713;40.700;-111.794;2022-07-10T03:17:50;84652.03;;;28.95;20.13
65134;BME280;51713;40.700;-111.794;2022-07-10T03:20:18;84650.99;;;28.49;20.15
65134;BME280;51713;40.700;-111.794;2022-07-10T03:22:47;84653.02;;;28.49;20.16
65134;BME280;51713;40.700;-111.794;2022-07-10T03:25:15;84656.76;;;28.51;20.41
65134;BME280;51713;40.700;-111.794;2022-07-10T03:27:43;84658.81;;;28.45;20.40
65134;BME280;51713;40.700;-111.794;2022-07-10T03:30:11;84658.93;;;28.49;20.43
65134;BME280;51713;40.700;-111.794;2022-07-10T03:32:40;84664.75;;;28.57;20.37
65134;BME280;51713;40.700;-111.794;2022-07-10T03:35:08;84666.54;;;28.64;20.34
65134;BME280;51713;40.700;-111.794;2022-07-10T03:37:36;84674.15;;;28.80;20.11
65134;BME280;51713;40.700;-111.794;2022-07-10T03:40:05;84675.20;;;28.68;20.31
65134;BME280;51713;40.700;-111.794;2022-07-10T03:42:33;84676.99;;;27.96;20.67
65134;BME280;51713;40.700;-111.794;2022-07-10T03:45:00;84680.51;;;28.98;20.34
65134;BME280;51713;40.700;-111.794;2022-07-10T03:47:28;84680.71;;;28.33;20.68
65134;BME280;51713;40.700;-111.794;2022-07-10T03:49:56;84680.53;;;28.54;20.55
65134;BME280;51713;40.700;-111.794;2022-07-10T03:52:29;84679.90;;;29.33;20.27
65134;BME280;51713;40.700;-111.794;2022-07-10T03:54:57;84683.74;;;28.90;20.31
65134;BME280;51713;40.700;-111.794;2022-07-10T03:57:25;84691.14;;;29.02;19.94
65134;BME280;51713;40.700;-111.794;2022-07-10T03:59:52;84703.27;;;28.27;20.28
65134;BME280;51713;40.700;-111.794;2022-07-10T04:02:20;84708.54;;;28.86;20.02
65134;BME280;51713;40.700;-111.794;2022-07-10T04:04:49;84720.42;;;28.49;20.30
65134;BME280;51713;40.700;-111.794;2022-07-10T04:07:17;84721.49;;;28.82;20.16
65134;BME280;51713;40.700;-111.794;2022-07-10T04:09:45;84722.06;;;29.01;20.19
65134;BME280;51713;40.700;-111.794;2022-07-10T04:12:13;84723.03;;;28.60;20.53
65134;BME280;51713;40.700;-111.794;2022-07-10T04:14:42;84724.44;;;28.49;20.42
65134;BME280;51713;40.700;-111.794;2022-07-10T04:17:09;84727.62;;;28.80;20.30
65134;BME280;51713;40.700;-111.794;2022-07-10T04:19:37;84733.05;;;28.75;20.32
65134;BME280;51713;40.700;-111.794;2022-07-10T04:22:05;84738.82;;;28.50;20.64
65134;BME280;51713;40.700;-111.794;2022-07-10T04:24:33;84739.15;;;28.96;20.26
65134;BME280;51713;40.700;-111.794;2022-07-10T04:27:01;84742.65;;;28.94;20.68
65134;BME280;51713;40.700;-111.794;2022-07-10T04:29:29;84743.71;;;28.69;20.62
65134;BME280;51713;40.700;-111.794;2022-07-10T04:31:58;84745.36;;;28.84;20.40
65134;BME280;51713;40.700;-111.794;2022-07-10T04:34:27;84747.76;;;29.34;20.73
65134;BME280;51713;40.700;-111.794;2022-07-10T04:36:55;84748.95;;;29.23;20.35
65134;BME280;51713;40.700;-111.794;2022-07-10T04:39:22;84751.99;;;28.93;20.28
65134;BME280;51713;40.700;-111.794;2022-07-10T04:41:50;84754.33;;;29.42;20.37
65134;BME280;51713;40.700;-111.794;2022-07-10T04:44:19;84753.57;;;29.46;20.44
65134;BME280;51713;40.700;-111.794;2022-07-10T04:46:47;84753.24;;;29.05;20.38
65134;BME280;51713;40.700;-111.794;2022-07-10T04:49:16;84755.30;;;29.13;20.18
65134;BME280;51713;40.700;-111.794;2022-07-10T04:51:43;84751.87;;;29.01;20.02
65134;BME280;51713;40.700;-111.794;2022-07-10T04:54:11;84750.95;;;29.19;19.64
65134;BME280;51713;40.700;-111.794;2022-07-10T04:56:39;84752.01;;;28.95;19.61
65134;BME280;51713;40.700;-111.794;2022-07-10T04:59:08;84757.36;;;28.75;19.61
65134;BME280;51713;40.700;-111.794;2022-07-10T05:01:36;84759.33;;;28.84;19.45
65134;BME280;51713;40.700;-111.794;2022-07-10T05:04:05;84756.21;;;29.22;19.32
65134;BME280;51713;40.700;-111.794;2022-07-10T05:06:33;84759.12;;;28.65;19.35
65134;BME280;51713;40.700;-111.794;2022-07-10T05:09:01;84754.16;;;28.84;19.23
65134;BME280;51713;40.700;-111.794;2022-07-10T05:11:29;84750.05;;;28.51;19.38
65134;BME280;51713;40.700;-111.794;2022-07-10T05:13:57;84748.59;;;28.19;19.32
65134;BME280;51713;40.700;-111.794;2022-07-10T05:16:26;84747.86;;;28.79;19.23
65134;BME280;51713;40.700;-111.794;2022-07-10T05:18:54;84749.43;;;28.27;19.10
65134;BME280;51713;40.700;-111.794;2022-07-10T05:21:21;84746.96;;;27.97;19.37
65134;BME280;51713;40.700;-111.794;2022-07-10T05:23:49;84744.82;;;28.23;19.32
65134;BME280;51713;40.700;-111.794;2022-07-10T05:26:17;84745.17;;;27.82;19.21
65134;BME280;51713;40.700;-111.794;2022-07-10T05:28:45;84745.02;;;28.03;19.10
65134;BME280;51713;40.700;-111.794;2022-07-10T05:31:13;84747.01;;;28.06;19.05
65134;BME280;51713;40.700;-111.794;2022-07-10T05:33:40;84748.56;;;27.72;19.12
65134;BME280;51713;40.700;-111.794;2022-07-10T05:36:09;84747.13;;;27.55;19.26
65134;BME280;51713;40.700;-111.794;2022-07-10T05:38:37;84749.66;;;28.07;18.89
65134;BME280;51713;40.700;-111.794;2022-07-10T05:41:05;84752.51;;;27.99;18.92
65134;BME280;51713;40.700;-111.794;2022-07-10T05:43:33;84750.51;;;28.23;18.84
65134;BME280;51713;40.700;-111.794;2022-07-10T05:46:01;84748.84;;;27.47;19.15
65134;BME280;51713;40.700;-111.794;2022-07-10T05:48:29;84746.89;;;27.61;19.14
65134;BME280;51713;40.700;-111.794;2022-07-10T05:50:57;84745.69;;;27.86;18.95
65134;BME280;51713;40.700;-111.794;2022-07-10T05:53:25;84746.59;;;27.28;19.28
65134;BME280;51713;40.700;-111.794;2022-07-10T05:55:53;84746.66;;;26.90;19.30
65134;BME280;51713;40.700;-111.794;2022-07-10T05:58:21;84745.22;;;27.31;19.19
65134;BME280;51713;40.700;-111.794;2022-07-10T06:00:50;84744.83;;;27.67;18.93
65134;BME280;51713;40.700;-111.794;2022-07-10T06:03:18;84742.91;;;27.75;18.81
65134;BME280;51713;40.700;-111.794;2022-07-10T06:05:46;84737.40;;;27.14;19.01
65134;BME280;51713;40.700;-111.794;2022-07-10T06:08:14;84742.13;;;27.33;19.04
65134;BME280;51713;40.700;-111.794;2022-07-10T06:10:42;84741.35;;;27.50;18.91
65134;BME280;51713;40.700;-111.794;2022-07-10T06:13:11;84747.03;;;27.53;18.97
65134;BME280;51713;40.700;-111.794;2022-07-10T06:15:39;84742.20;;;27.34;18.96
65134;BME280;51713;40.700;-111.794;2022-07-10T06:18:08;84737.52;;;27.36;18.94
65134;BME280;51713;40.700;-111.794;2022-07-10T06:20:36;84741.93;;;27.08;19.11
65134;BME280;51713;40.700;-111.794;2022-07-10T06:23:03;84741.17;;;27.37;18.90
65134;BME280;51713;40.700;-111.794;2022-07-10T06:25:31;84739.96;;;27.30;18.93
65134;BME280;51713;40.700;-111.794;2022-07-10T06:27:59;84739.56;;;27.32;18.87
65134;BME280;51713;40.700;-111.794;2022-07-10T06:30:28;84737.83;;;27.28;18.88
65134;BME280;51713;40.700;-111.794;2022-07-10T06:32:56;84739.76;;;27.41;18.90
65134;BME280;51713;40.700;-111.794;2022-07-10T06:35:24;84741.91;;;26.96;19.06
65134;BME280;51713;40.700;-111.794;2022-07-10T06:37:53;84743.14;;;27.40;18.85
65134;BME280;51713;40.700;-111.794;2022-07-10T06:40:21;84742.76;;;26.82;19.06
65134;BME280;51713;40.700;-111.794;2022-07-10T06:42:49;84743.53;;;26.80;19.04
65134;BME280;51713;40.700;-111.794;2022-07-10T06:45:17;84740.99;;;27.02;19.02
65134;BME280;51713;40.700;-111.794;2022-07-10T06:47:46;84741.54;;;26.80;18.99
65134;BME280;51713;40.700;-111.794;2022-07-10T06:50:15;84738.26;;;27.36;18.91
65134;BME280;51713;40.700;-111.794;2022-07-10T06:52:44;84733.58;;;26.93;18.89
65134;BME280;51713;40.700;-111.794;2022-07-10T06:55:13;84735.72;;;27.18;19.03
65134;BME280;51713;40.700;-111.794;2022-07-10T06:57:41;84732.03;;;26.95;19.15
65134;BME280;51713;40.700;-111.794;2022-07-10T07:00:10;84731.51;;;27.13;19.01
65134;BME280;51713;40.700;-111.794;2022-07-10T07:02:38;84750.58;;;27.01;19.07
65134;BME280;51713;40.700;-111.794;2022-07-10T07:05:07;84780.70;;;26.71;19.27
65134;BME280;51713;40.700;-111.794;2022-07-10T07:07:36;84791.36;;;26.93;19.08
65134;BME280;51713;40.700;-111.794;2022-07-10T07:10:05;84791.12;;;26.84;18.94
65134;BME280;51713;40.700;-111.794;2022-07-10T07:12:34;84784.44;;;26.87;19.04
65134;BME280;51713;40.700;-111.794;2022-07-10T07:15:03;84779.76;;;26.82;19.08
65134;BME280;51713;40.700;-111.794;2022-07-10T07:17:31;84774.77;;;26.28;19.34
65134;BME280;51713;40.700;-111.794;2022-07-10T07:19:59;84785.26;;;26.55;19.20
65134;BME280;51713;40.700;-111.794;2022-07-10T07:22:28;84788.45;;;26.57;19.30
65134;BME280;51713;40.700;-111.794;2022-07-10T07:24:55;84805.19;;;26.41;19.23
65134;BME280;51713;40.700;-111.794;2022-07-10T07:27:23;84809.00;;;26.51;19.12
65134;BME280;51713;40.700;-111.794;2022-07-10T07:29:51;84809.79;;;25.90;19.93
65134;BME280;51713;40.700;-111.794;2022-07-10T07:32:19;84806.16;;;25.72;20.24
65134;BME280;51713;40.700;-111.794;2022-07-10T07:34:47;84803.58;;;26.34;19.92
65134;BME280;51713;40.700;-111.794;2022-07-10T07:37:15;84804.46;;;26.41;19.91
65134;BME280;51713;40.700;-111.794;2022-07-10T07:39:44;84803.60;;;26.14;20.05
65134;BME280;51713;40.700;-111.794;2022-07-10T07:42:11;84794.89;;;26.41;19.81
65134;BME280;51713;40.700;-111.794;2022-07-10T07:44:39;84793.36;;;26.39;19.86
65134;BME280;51713;40.700;-111.794;2022-07-10T07:47:07;84793.39;;;25.68;20.38
65134;BME280;51713;40.700;-111.794;2022-07-10T07:49:35;84797.61;;;26.41;20.12
65134;BME280;51713;40.700;-111.794;2022-07-10T07:52:04;84797.20;;;26.59;19.73
65134;BME280;51713;40.700;-111.794;2022-07-10T07:54:32;84802.10;;;26.73;19.59
65134;BME280;51713;40.700;-111.794;2022-07-10T07:57:01;84802.22;;;26.69;19.55
65134;BME280;51713;40.700;-111.794;2022-07-10T07:59:29;84798.95;;;26.44;19.66
65134;BME280;51713;40.700;-111.794;2022-07-10T08:01:56;84799.55;;;26.65;19.46
65134;BME280;51713;40.700;-111.794;2022-07-10T08:04:25;84800.92;;;26.24;19.68
65134;BME280;51713;40.700;-111.794;2022-07-10T08:06:53;84800.16;;;26.14;19.89
65134;BME280;51713;40.700;-111.794;2022-07-10T08:09:21;84802.16;;;26.29;20.10
65134;BME280;51713;40.700;-111.794;2022-07-10T08:11:50;84806.34;;;25.78;20.40
65134;BME280;51713;40.700;-111.794;2022-07-10T08:14:18;84814.40;;;25.77;20.50
65134;BME280;51713;40.700;-111.794;2022-07-10T08:16:46;84816.43;;;25.99;20.59
65134;BME280;51713;40.700;-111.794;2022-07-10T08:19:13;84813.75;;;25.96;20.64
65134;BME280;51713;40.700;-111.794;2022-07-10T08:21:42;84817.19;;;25.93;20.54
65134;BME280;51713;40.700;-111.794;2022-07-10T08:24:10;84817.05;;;26.39;20.58
65134;BME280;51713;40.700;-111.794;2022-07-10T08:26:38;84822.90;;;26.67;20.22
65134;BME280;51713;40.700;-111.794;2022-07-10T08:29:06;84831.38;;;26.67;19.97
65134;BME280;51713;40.700;-111.794;2022-07-10T08:31:34;84836.02;;;26.69;19.99
65134;BME280;51713;40.700;-111.794;2022-07-10T08:34:02;84838.86;;;26.68;19.70
65134;BME280;51713;40.700;-111.794;2022-07-10T08:36:31;84837.94;;;26.53;19.68
65134;BME280;51713;40.700;-111.794;2022-07-10T08:38:58;84840.46;;;26.01;19.98
65134;BME280;51713;40.700;-111.794;2022-07-10T08:41:27;84841.84;;;25.91;20.23
65134;BME280;51713;40.700;-111.794;2022-07-10T08:43:55;84845.15;;;25.97;20.30
65134;BME280;51713;40.700;-111.794;2022-07-10T08:46:23;84850.38;;;26.21;20.41
65134;BME280;51713;40.700;-111.794;2022-07-10T08:48:54;84858.79;;;27.02;19.96
65134;BME280;51713;40.700;-111.794;2022-07-10T08:51:37;84853.15;;;26.19;20.57
65134;BME280;51713;40.700;-111.794;2022-07-10T08:54:09;84856.39;;;26.44;20.33
65134;BME280;51713;40.700;-111.794;2022-07-10T08:56:38;84853.66;;;26.25;20.56
65134;BME280;51713;40.700;-111.794;2022-07-10T08:59:08;84858.45;;;25.93;20.77
65134;BME280;51713;40.700;-111.794;2022-07-10T09:01:37;84863.94;;;26.33;20.34
65134;BME280;51713;40.700;-111.794;2022-07-10T09:04:06;84867.02;;;26.98;19.95
65134;BME280;51713;40.700;-111.794;2022-07-10T09:06:34;84867.89;;;26.71;19.79
65134;BME280;51713;40.700;-111.794;2022-07-10T09:09:04;84869.78;;;26.40;19.89
65134;BME280;51713;40.700;-111.794;2022-07-10T09:11:33;84870.74;;;26.30;19.83
65134;BME280;51713;40.700;-111.794;2022-07-10T09:14:04;84873.13;;;26.09;19.78
65134;BME280;51713;40.700;-111.794;2022-07-10T09:16:35;84874.47;;;25.82;20.23
65134;BME280;51713;40.700;-111.794;2022-07-10T09:19:17;84875.83;;;26.69;19.99
65134;BME280;51713;40.700;-111.794;2022-07-10T09:21:46;84876.08;;;26.70;19.87
65134;BME280;51713;40.700;-111.794;2022-07-10T09:24:15;84876.46;;;26.28;20.39
65134;BME280;51713;40.700;-111.794;2022-07-10T09:26:57;84882.25;;;26.31;20.44
65134;BME280;51713;40.700;-111.794;2022-07-10T09:29:26;84876.72;;;25.75;20.67
65134;BME280;51713;40.700;-111.794;2022-07-10T09:31:56;84879.27;;;25.79;20.86
65134;BME280;51713;40.700;-111.794;2022-07-10T09:34:41;84879.35;;;25.65;20.82
65134;BME280;51713;40.700;-111.794;2022-07-10T09:37:27;84884.93;;;26.60;20.07
65134;BME280;51713;40.700;-111.794;2022-07-10T09:39:58;84887.10;;;26.48;19.92
65134;BME280;51713;40.700;-111.794;2022-07-10T09:42:28;84891.72;;;27.15;19.58
65134;BME280;51713;40.700;-111.794;2022-07-10T09:45:19;84890.42;;;26.29;19.77
65134;BME280;51713;40.700;-111.794;2022-07-10T09:47:55;84892.15;;;26.46;19.71
65134;BME280;51713;40.700;-111.794;2022-07-10T09:50:27;84894.71;;;26.27;19.88
65134;BME280;51713;40.700;-111.794;2022-07-10T09:52:56;84900.34;;;26.57;19.74
65134;BME280;51713;40.700;-111.794;2022-07-10T09:55:26;84897.44;;;25.95;20.31
65134;BME280;51713;40.700;-111.794;2022-07-10T09:57:56;84903.13;;;26.11;20.42
65134;BME280;51713;40.700;-111.794;2022-07-10T10:00:26;84903.90;;;26.99;19.86
65134;BME280;51713;40.700;-111.794;2022-07-10T10:02:57;84903.27;;;26.79;20.08
65134;BME280;51713;40.700;-111.794;2022-07-10T10:05:34;84903.34;;;25.58;20.74
65134;BME280;51713;40.700;-111.794;2022-07-10T10:08:08;84903.19;;;26.03;21.00
65134;BME280;51713;40.700;-111.794;2022-07-10T10:10:44;84904.69;;;25.82;20.71
65134;BME280;51713;40.700;-111.794;2022-07-10T10:13:14;84910.29;;;26.20;20.67
65134;BME280;51713;40.700;-111.794;2022-07-10T10:15:44;84915.88;;;26.15;20.42
65134;BME280;51713;40.700;-111.794;2022-07-10T10:18:13;84925.16;;;27.16;19.87
65134;BME280;51713;40.700;-111.794;2022-07-10T10:20:44;84925.03;;;26.50;20.01
65134;BME280;51713;40.700;-111.794;2022-07-10T10:23:15;84928.53;;;26.42;19.82
65134;BME280;51713;40.700;-111.794;2022-07-10T10:25:43;84934.19;;;26.25;19.96
65134;BME280;51713;40.700;-111.794;2022-07-10T10:28:13;84932.70;;;25.68;20.31
65134;BME280;51713;40.700;-111.794;2022-07-10T10:30:43;84931.81;;;26.85;20.00
65134;BME280;51713;40.700;-111.794;2022-07-10T10:33:45;84932.64;;;25.74;20.72
65134;BME280;51713;40.700;-111.794;2022-07-10T10:36:44;84929.59;;;25.96;20.63
65134;BME280;51713;40.700;-111.794;2022-07-10T10:39:13;84932.29;;;26.31;20.50
65134;BME280;51713;40.700;-111.794;2022-07-10T10:41:46;84932.48;;;25.90;20.84
65134;BME280;51713;40.700;-111.794;2022-07-10T10:44:25;84938.62;;;25.61;21.08
65134;BME280;51713;40.700;-111.794;2022-07-10T10:46:56;84940.58;;;25.68;20.91
65134;BME280;51713;40.700;-111.794;2022-07-10T10:49:25;84943.53;;;25.62;21.17
65134;BME280;51713;40.700;-111.794;2022-07-10T10:52:02;84946.41;;;25.80;20.96
65134;BME280;51713;40.700;-111.794;2022-07-10T10:55:03;84948.08;;;26.27;20.51
65134;BME280;51713;40.700;-111.794;2022-07-10T10:57:40;84950.26;;;26.56;20.13
65134;BME280;51713;40.700;-111.794;2022-07-10T11:00:12;84956.94;;;25.74;20.32
65134;BME280;51713;40.700;-111.794;2022-07-10T11:02:42;84952.76;;;26.84;19.93
65134;BME280;51713;40.700;-111.794;2022-07-10T11:05:44;84953.09;;;26.57;20.14
65134;BME280;51713;40.700;-111.794;2022-07-10T11:08:14;84956.06;;;26.48;20.25
65134;BME280;51713;40.700;-111.794;2022-07-10T11:10:43;84959.82;;;25.90;20.77
65134;BME280;51713;40.700;-111.794;2022-07-10T11:13:14;84966.36;;;26.00;20.87
65134;BME280;51713;40.700;-111.794;2022-07-10T11:15:45;84968.25;;;25.51;20.98
65134;BME280;51713;40.700;-111.794;2022-07-10T11:18:15;84974.66;;;25.79;20.92
65134;BME280;51713;40.700;-111.794;2022-07-10T11:20:45;84974.17;;;25.81;20.94
65134;BME280;51713;40.700;-111.794;2022-07-10T11:23:56;84980.80;;;26.09;20.93
65134;BME280;51713;40.700;-111.794;2022-07-10T11:26:29;84980.97;;;25.35;21.12
65134;BME280;51713;40.700;-111.794;2022-07-10T11:29:05;84984.16;;;25.73;21.15
65134;BME280;51713;40.700;-111.794;2022-07-10T11:31:34;84981.96;;;25.94;21.02
65134;BME280;51713;40.700;-111.794;2022-07-10T11:34:02;84982.70;;;26.23;20.65
65134;BME280;51713;40.700;-111.794;2022-07-10T11:36:31;84980.07;;;27.09;20.15
65134;BME280;51713;40.700;-111.794;2022-07-10T11:39:00;84982.35;;;26.40;19.99
65134;BME280;51713;40.700;-111.794;2022-07-10T11:41:29;84987.42;;;26.38;19.84
65134;BME280;51713;40.700;-111.794;2022-07-10T11:43:59;84991.92;;;26.07;20.20
65134;BME280;51713;40.700;-111.794;2022-07-10T11:46:29;84993.94;;;26.11;20.50
65134;BME280;51713;40.700;-111.794;2022-07-10T11:48:58;84994.22;;;26.05;20.86
65134;BME280;51713;40.700;-111.794;2022-07-10T11:51:27;84998.10;;;25.69;21.03
65134;BME280;51713;40.700;-111.794;2022-07-10T11:53:58;84999.73;;;25.78;21.15
65134;BME280;51713;40.700;-111.794;2022-07-10T11:56:27;85003.86;;;25.84;21.01
65134;BME280;51713;40.700;-111.794;2022-07-10T11:58:58;85006.04;;;25.32;21.12
65134;BME280;51713;40.700;-111.794;2022-07-10T12:01:27;85005.49;;;25.27;21.34
65134;BME280;51713;40.700;-111.794;2022-07-10T12:03:59;85008.41;;;24.86;21.48
65134;BME280;51713;40.700;-111.794;2022-07-10T12:06:29;85010.37;;;26.10;21.15
65134;BME280;51713;40.700;-111.794;2022-07-10T12:09:03;85008.91;;;25.61;21.30
65134;BME280;51713;40.700;-111.794;2022-07-10T12:11:32;85008.03;;;25.76;21.21
65134;BME280;51713;40.700;-111.794;2022-07-10T12:14:17;85009.58;;;25.92;21.21
65134;BME280;51713;40.700;-111.794;2022-07-10T12:16:48;85011.40;;;25.90;21.43
65134;BME280;51713;40.700;-111.794;2022-07-10T12:19:18;85014.67;;;25.47;21.48
65134;BME280;51713;40.700;-111.794;2022-07-10T12:21:47;85018.27;;;25.91;21.29
65134;BME280;51713;40.700;-111.794;2022-07-10T12:24:18;85019.81;;;25.74;21.55
65134;BME280;51713;40.700;-111.794;2022-07-10T12:26:46;85016.52;;;25.68;21.48
65134;BME280;51713;40.700;-111.794;2022-07-10T12:29:20;85017.58;;;26.39;21.23
65134;BME280;51713;40.700;-111.794;2022-07-10T12:31:51;85017.20;;;26.25;21.60
65134;BME280;51713;40.700;-111.794;2022-07-10T12:34:19;85017.64;;;25.40;21.89
65134;BME280;51713;40.700;-111.794;2022-07-10T12:36:49;85019.48;;;25.78;21.69
65134;BME280;51713;40.700;-111.794;2022-07-10T12:39:19;85025.19;;;25.50;21.93
65134;BME280;51713;40.700;-111.794;2022-07-10T12:41:57;85025.62;;;25.80;21.78
65134;BME280;51713;40.700;-111.794;2022-07-10T12:44:35;85024.09;;;25.64;21.76